createdAt,value
2019-04-30T00:00:18.449Z,95.40
2019-04-30T00:03:11.465Z,103.10
2019-04-30T00:05:41.697Z,97.55
2019-04-30T00:08:15.897Z,103.90
2019-04-30T00:10:46.844Z,106.17
2019-04-30T00:13:20.947Z,109.25
2019-04-30T00:15:52.875Z,108.03
2019-04-30T00:18:25.711Z,106.83
2019-04-30T00:20:57.775Z,106.90
2019-04-30T00:23:30.918Z,99.87
2019-04-30T00:26:06.022Z,102.22
2019-04-30T00:28:39.376Z,108.67
2019-04-30T00:31:09.616Z,108.72
2019-04-30T00:33:41.687Z,104.65
2019-04-30T00:36:14.814Z,103.07
2019-04-30T00:38:47.257Z,95.12
2019-04-30T00:41:19.333Z,86.28
2019-04-30T00:43:51.175Z,79.42
2019-04-30T00:46:24.920Z,77.00
2019-04-30T00:49:08.764Z,85.53
2019-04-30T00:51:30.413Z,75.52
2019-04-30T00:54:02.377Z,75.62
2019-04-30T00:56:35.523Z,72.32
2019-04-30T00:59:10.436Z,72.78
2019-04-30T01:01:43.516Z,66.07
2019-04-30T01:04:19.443Z,72.90
2019-04-30T01:06:51.733Z,69.42
2019-04-30T01:09:25.661Z,66.77
2019-04-30T01:11:57.378Z,73.80
2019-04-30T01:14:31.974Z,67.50
2019-04-30T01:17:03.699Z,72.65
2019-04-30T01:19:36.742Z,63.60
2019-04-30T01:22:09.042Z,61.60
2019-04-30T01:24:41.178Z,66.82
2019-04-30T01:27:13.166Z,67.53
2019-04-30T01:29:45.467Z,79.67
2019-04-30T01:32:20.822Z,72.15
2019-04-30T01:34:53.736Z,78.60
2019-04-30T01:37:29.581Z,82.37
2019-04-30T01:39:58.918Z,70.22
2019-04-30T01:42:32.105Z,72.25
2019-04-30T01:45:04.657Z,67.25
2019-04-30T01:47:36.515Z,75.25
2019-04-30T01:50:09.295Z,69.75
2019-04-30T01:52:53.589Z,74.50
2019-04-30T01:55:36.295Z,71.40
2019-04-30T01:58:29.951Z,71.10
2019-04-30T02:01:01.489Z,73.10
2019-04-30T02:03:33.563Z,77.20
2019-04-30T02:06:05.410Z,79.90
2019-04-30T02:08:37.075Z,73.25
2019-04-30T02:11:09.122Z,80.12
2019-04-30T02:13:41.191Z,66.95
2019-04-30T02:16:13.461Z,74.00
2019-04-30T02:18:45.650Z,71.30
2019-04-30T02:21:19.500Z,71.72
2019-04-30T02:23:51.504Z,74.87
2019-04-30T02:26:23.791Z,72.20
2019-04-30T02:28:55.752Z,71.37
2019-04-30T02:31:30.757Z,66.25
2019-04-30T02:34:05.627Z,69.37
2019-04-30T02:36:49.975Z,61.98
2019-04-30T02:39:21.734Z,73.85
2019-04-30T02:41:54.692Z,71.60
2019-04-30T02:44:29.253Z,72.20
2019-04-30T02:47:01.501Z,71.95
2019-04-30T02:49:33.759Z,74.90
2019-04-30T02:52:09.104Z,73.60
2019-04-30T02:54:43.533Z,70.32
2019-04-30T02:57:15.303Z,78.33
2019-04-30T03:00:09.700Z,66.47
2019-04-30T03:02:40.369Z,73.52
2019-04-30T03:05:14.110Z,73.55
2019-04-30T03:07:45.888Z,72.92
2019-04-30T03:10:19.818Z,64.82
2019-04-30T03:12:51.649Z,71.53
2019-04-30T03:15:23.502Z,67.70
2019-04-30T03:17:57.081Z,73.57
2019-04-30T03:20:47.443Z,68.72
2019-04-30T03:23:20.463Z,64.45
2019-04-30T03:25:52.344Z,84.05
2019-04-30T03:28:24.310Z,81.72
2019-04-30T03:30:57.947Z,77.92
2019-04-30T03:33:32.572Z,67.97
2019-04-30T03:36:03.351Z,79.65
2019-04-30T03:38:35.412Z,88.05
2019-04-30T03:41:09.702Z,80.35
2019-04-30T03:43:41.413Z,76.30
2019-04-30T03:46:13.466Z,78.72
2019-04-30T03:48:45.685Z,77.45
2019-04-30T03:51:19.904Z,72.95
2019-04-30T03:53:51.408Z,68.05
2019-04-30T03:56:24.162Z,65.83
2019-04-30T03:58:55.884Z,64.00
2019-04-30T04:01:29.561Z,59.38
2019-04-30T04:04:10.129Z,63.95
2019-04-30T04:06:46.208Z,63.38
2019-04-30T04:09:39.963Z,61.00
2019-04-30T04:12:24.894Z,61.48
2019-04-30T04:14:57.050Z,65.83
2019-04-30T04:17:31.464Z,70.72
2019-04-30T04:20:02.633Z,66.75
2019-04-30T04:22:34.484Z,65.55
2019-04-30T04:25:12.633Z,78.75
2019-04-30T04:27:40.683Z,82.88
2019-04-30T04:30:12.960Z,81.78
2019-04-30T04:32:44.869Z,84.50
2019-04-30T04:35:19.503Z,79.17
2019-04-30T04:37:50.551Z,82.85
2019-04-30T04:40:22.410Z,74.82
2019-04-30T04:42:54.478Z,85.42
2019-04-30T04:45:26.569Z,74.15
2019-04-30T04:48:00.045Z,78.25
2019-04-30T04:50:31.902Z,73.20
2019-04-30T04:53:04.013Z,74.72
2019-04-30T04:55:36.252Z,86.85
2019-04-30T04:58:09.738Z,78.02
2019-04-30T05:00:41.487Z,77.78
2019-04-30T05:03:14.683Z,76.77
2019-04-30T05:05:46.598Z,76.47
2019-04-30T05:08:18.656Z,78.37
2019-04-30T05:10:50.904Z,77.87
2019-04-30T05:13:22.765Z,82.15
2019-04-30T05:15:54.709Z,77.08
2019-04-30T05:18:26.654Z,76.72
2019-04-30T05:20:59.178Z,85.50
2019-04-30T05:23:31.240Z,82.47
2019-04-30T05:26:04.305Z,75.83
2019-04-30T05:28:36.137Z,83.67
2019-04-30T05:31:08.771Z,81.60
2019-04-30T05:33:40.804Z,80.75
2019-04-30T05:36:12.573Z,81.75
2019-04-30T05:38:44.223Z,72.78
2019-04-30T05:41:16.592Z,69.07
2019-04-30T05:43:48.893Z,82.08
2019-04-30T05:46:20.829Z,77.95
2019-04-30T05:48:52.935Z,71.53
2019-04-30T05:51:25.048Z,76.57
2019-04-30T05:53:59.110Z,78.85
2019-04-30T05:56:31.435Z,60.95
2019-04-30T05:59:03.328Z,66.82
2019-04-30T06:01:35.043Z,76.33
2019-04-30T06:04:06.804Z,60.83
2019-04-30T06:06:38.968Z,65.83
2019-04-30T06:09:28.608Z,67.58
2019-04-30T06:11:53.143Z,72.50
2019-04-30T06:14:28.530Z,65.55
2019-04-30T06:17:09.791Z,65.22
2019-04-30T06:19:41.839Z,68.02
2019-04-30T06:22:13.571Z,66.00
2019-04-30T06:24:45.623Z,69.62
2019-04-30T06:27:19.116Z,64.10
2019-04-30T06:29:50.998Z,58.95
2019-04-30T06:32:23.058Z,65.22
2019-04-30T06:34:55.007Z,55.63
2019-04-30T06:37:28.799Z,52.03
2019-04-30T06:40:00.798Z,56.95
2019-04-30T06:42:32.643Z,60.33
2019-04-30T06:45:09.233Z,55.17
2019-04-30T06:47:40.979Z,51.50
2019-04-30T06:50:13.371Z,48.60
2019-04-30T06:52:56.616Z,48.38
2019-04-30T06:55:19.416Z,44.42
2019-04-30T06:57:51.541Z,48.80
2019-04-30T07:00:32.861Z,44.75
2019-04-30T07:02:59.718Z,38.35
2019-04-30T07:05:31.880Z,44.53
2019-04-30T07:08:22.159Z,43.90
2019-04-30T07:11:11.135Z,39.53
2019-04-30T07:13:41.653Z,42.00
2019-04-30T07:16:13.324Z,52.85
2019-04-30T07:18:45.191Z,45.30
2019-04-30T07:21:19.533Z,46.28
2019-04-30T07:23:50.333Z,48.95
2019-04-30T07:26:24.404Z,48.65
2019-04-30T07:28:55.685Z,40.60
2019-04-30T07:31:29.363Z,41.98
2019-04-30T07:34:00.969Z,35.60
2019-04-30T07:36:45.264Z,39.63
2019-04-30T07:39:10.003Z,42.88
2019-04-30T07:41:41.345Z,42.00
2019-04-30T07:44:30.012Z,43.68
2019-04-30T07:46:49.337Z,45.78
2019-04-30T07:49:21.469Z,46.48
2019-04-30T07:51:55.640Z,43.68
2019-04-30T07:54:29.976Z,65.55
2019-04-30T07:57:00.984Z,39.98
2019-04-30T07:59:32.755Z,43.02
2019-04-30T08:02:13.724Z,38.30
2019-04-30T08:04:45.472Z,40.00
2019-04-30T08:07:17.035Z,42.27
2019-04-30T08:09:49.402Z,40.88
2019-04-30T08:12:29.813Z,46.75
2019-04-30T08:14:54.866Z,45.10
2019-04-30T08:17:28.814Z,40.35
2019-04-30T08:20:00.226Z,35.45
2019-04-30T08:22:32.194Z,39.67
2019-04-30T08:25:04.909Z,33.78
2019-04-30T08:27:36.631Z,31.95
2019-04-30T08:30:21.384Z,34.58
2019-04-30T08:32:43.113Z,38.60
2019-04-30T08:35:14.973Z,35.92
2019-04-30T08:37:46.915Z,29.90
2019-04-30T08:40:19.272Z,29.72
2019-04-30T08:42:52.385Z,33.10
2019-04-30T08:45:24.448Z,35.83
2019-04-30T08:47:56.406Z,48.33
2019-04-30T08:50:29.597Z,34.38
2019-04-30T08:53:01.864Z,43.80
2019-04-30T08:55:34.124Z,32.25
2019-04-30T08:58:09.825Z,32.15
2019-04-30T09:00:40.104Z,33.95
2019-04-30T09:03:12.271Z,37.13
2019-04-30T09:05:45.775Z,37.88
2019-04-30T09:08:19.351Z,70.05
2019-04-30T09:10:52.255Z,43.87
2019-04-30T09:13:24.424Z,43.15
2019-04-30T09:15:56.624Z,45.58
2019-04-30T09:18:29.255Z,48.30
2019-04-30T09:21:06.133Z,54.75
2019-04-30T09:23:45.938Z,49.13
2019-04-30T09:26:08.738Z,51.70
2019-04-30T09:28:41.086Z,50.25
2019-04-30T09:31:12.974Z,52.08
2019-04-30T09:33:45.184Z,63.68
2019-04-30T09:36:20.554Z,50.92
2019-04-30T09:38:50.295Z,49.85
2019-04-30T09:41:22.380Z,49.45
2019-04-30T09:43:54.424Z,53.17
2019-04-30T09:46:29.955Z,46.80
2019-04-30T09:49:02.953Z,46.40
2019-04-30T09:51:36.069Z,46.98
2019-04-30T09:54:11.921Z,45.73
2019-04-30T09:56:42.020Z,44.60
2019-04-30T09:59:13.874Z,42.58
2019-04-30T10:01:46.040Z,47.62
2019-04-30T10:04:20.186Z,47.78
2019-04-30T10:06:51.392Z,50.28
2019-04-30T10:09:23.464Z,39.10
2019-04-30T10:11:57.070Z,44.77
2019-04-30T10:14:28.656Z,44.05
2019-04-30T10:17:02.424Z,46.50
2019-04-30T10:19:34.137Z,48.05
2019-04-30T10:22:08.849Z,41.18
2019-04-30T10:24:40.875Z,41.63
2019-04-30T10:27:13.612Z,38.48
2019-04-30T10:29:45.407Z,55.70
2019-04-30T10:32:18.699Z,41.60
2019-04-30T10:34:50.499Z,40.00
2019-04-30T10:37:22.726Z,38.70
2019-04-30T10:39:54.835Z,36.90
2019-04-30T10:42:28.676Z,55.80
2019-04-30T10:45:00.375Z,44.95
2019-04-30T10:47:32.834Z,55.00
2019-04-30T10:50:07.051Z,47.50
2019-04-30T10:52:39.398Z,41.92
2019-04-30T10:55:11.455Z,42.45
2019-04-30T10:57:43.180Z,44.67
2019-04-30T11:00:16.046Z,44.67
2019-04-30T11:02:49.529Z,45.45
2019-04-30T11:05:21.440Z,41.48
2019-04-30T11:07:53.384Z,51.20
2019-04-30T11:10:25.411Z,45.30
2019-04-30T11:12:57.141Z,46.80
2019-04-30T11:15:29.320Z,56.65
2019-04-30T11:18:01.561Z,45.00
2019-04-30T11:20:33.729Z,48.55
2019-04-30T11:23:14.314Z,49.42
2019-04-30T11:25:41.270Z,49.67
2019-04-30T11:28:13.338Z,46.63
2019-04-30T11:30:46.053Z,65.12
2019-04-30T11:33:18.166Z,49.27
2019-04-30T11:36:01.695Z,47.75
2019-04-30T11:38:23.875Z,62.83
2019-04-30T11:40:56.102Z,73.02
2019-04-30T11:43:29.472Z,44.50
2019-04-30T11:46:25.379Z,46.95
2019-04-30T11:48:58.725Z,46.83
2019-04-30T11:51:30.395Z,48.13
2019-04-30T11:54:02.488Z,46.65
2019-04-30T11:56:34.247Z,42.65
2019-04-30T11:59:06.085Z,43.75
2019-04-30T12:01:38.857Z,43.13
2019-04-30T12:04:10.550Z,44.67
2019-04-30T12:06:42.690Z,56.00
2019-04-30T12:09:20.132Z,44.50
2019-04-30T12:11:52.255Z,42.80
2019-04-30T12:14:24.215Z,48.30
2019-04-30T12:16:56.294Z,36.13
2019-04-30T12:19:28.645Z,43.23
2019-04-30T12:22:00.552Z,43.63
2019-04-30T12:24:32.373Z,39.45
2019-04-30T12:27:04.486Z,41.05
2019-04-30T12:29:36.681Z,41.33
2019-04-30T12:32:08.669Z,38.20
2019-04-30T12:34:40.621Z,43.55
2019-04-30T12:37:12.576Z,45.70
2019-04-30T12:39:44.754Z,33.00
2019-04-30T12:42:18.667Z,40.15
2019-04-30T12:44:51.630Z,38.75
2019-04-30T12:47:23.928Z,37.25
2019-04-30T12:50:09.601Z,38.65
2019-04-30T12:52:45.952Z,40.15
2019-04-30T12:55:19.958Z,35.83
2019-04-30T12:57:58.883Z,37.40
2019-04-30T13:00:29.358Z,33.42
2019-04-30T13:03:01.232Z,37.98
2019-04-30T13:05:33.257Z,31.15
2019-04-30T13:08:05.702Z,33.90
2019-04-30T13:10:38.070Z,33.25
2019-04-30T13:13:10.818Z,34.92
2019-04-30T13:15:42.844Z,37.63
2019-04-30T13:18:14.997Z,55.17
2019-04-30T13:20:48.817Z,31.65
2019-04-30T13:23:20.689Z,41.70
2019-04-30T13:25:52.841Z,38.70
2019-04-30T13:28:26.120Z,33.70
2019-04-30T13:30:59.313Z,32.00
2019-04-30T13:33:42.047Z,29.45
2019-04-30T13:36:14.088Z,32.78
2019-04-30T13:38:52.383Z,29.60
2019-04-30T13:41:31.531Z,32.78
2019-04-30T13:44:04.933Z,30.75
